sensor_id;sensor_type;location;lat;lon;timestamp;temperature;humidity
610;DHT22;292;48.800;9.216;2024-01-25T00:02:25;12.90;62.80
610;DHT22;292;48.800;9.216;2024-01-25T00:04:53;12.90;63.00
610;DHT22;292;48.800;9.216;2024-01-25T00:07:20;12.90;63.30
610;DHT22;292;48.800;9.216;2024-01-25T00:09:47;12.90;63.40
610;DHT22;292;48.800;9.216;2024-01-25T00:12:14;12.90;63.60
610;DHT22;292;48.800;9.216;2024-01-25T00:14:41;12.90;63.70
610;DHT22;292;48.800;9.216;2024-01-25T00:17:08;12.90;63.80
610;DHT22;292;48.800;9.216;2024-01-25T00:19:35;12.90;64.00
610;DHT22;292;48.800;9.216;2024-01-25T00:22:04;12.90;64.00
610;DHT22;292;48.800;9.216;2024-01-25T00:24:31;12.80;64.30
610;DHT22;292;48.800;9.216;2024-01-25T00:26:59;12.80;64.30
610;DHT22;292;48.800;9.216;2024-01-25T00:29:26;12.80;64.60
610;DHT22;292;48.800;9.216;2024-01-25T00:31:53;12.80;64.60
610;DHT22;292;48.800;9.216;2024-01-25T00:34:21;12.80;64.70
610;DHT22;292;48.800;9.216;2024-01-25T00:36:48;12.80;64.90
610;DHT22;292;48.800;9.216;2024-01-25T00:39:17;12.80;65.00
610;DHT22;292;48.800;9.216;2024-01-25T00:41:46;12.80;65.10
610;DHT22;292;48.800;9.216;2024-01-25T00:44:17;12.80;65.30
610;DHT22;292;48.800;9.216;2024-01-25T00:46:45;12.80;65.40
610;DHT22;292;48.800;9.216;2024-01-25T00:49:13;12.80;65.60
610;DHT22;292;48.800;9.216;2024-01-25T00:51:43;12.80;65.70
610;DHT22;292;48.800;9.216;2024-01-25T00:54:13;12.80;65.90
610;DHT22;292;48.800;9.216;2024-01-25T00:56:42;12.80;66.00
610;DHT22;292;48.800;9.216;2024-01-25T00:59:10;12.80;66.20
610;DHT22;292;48.800;9.216;2024-01-25T01:01:38;12.80;66.30
610;DHT22;292;48.800;9.216;2024-01-25T01:04:07;12.80;66.60
610;DHT22;292;48.800;9.216;2024-01-25T01:06:35;12.80;66.70
610;DHT22;292;48.800;9.216;2024-01-25T01:09:02;12.80;66.90
610;DHT22;292;48.800;9.216;2024-01-25T01:11:29;12.80;67.00
610;DHT22;292;48.800;9.216;2024-01-25T01:13:58;12.80;67.00
610;DHT22;292;48.800;9.216;2024-01-25T01:16:25;12.80;67.20
610;DHT22;292;48.800;9.216;2024-01-25T01:18:51;12.80;67.30
610;DHT22;292;48.800;9.216;2024-01-25T01:21:18;12.80;67.50
610;DHT22;292;48.800;9.216;2024-01-25T01:23:46;12.80;67.50
610;DHT22;292;48.800;9.216;2024-01-25T01:26:14;12.70;67.60
610;DHT22;292;48.800;9.216;2024-01-25T01:28:41;12.80;67.60
610;DHT22;292;48.800;9.216;2024-01-25T01:31:10;12.80;67.60
610;DHT22;292;48.800;9.216;2024-01-25T01:33:37;12.80;67.60
610;DHT22;292;48.800;9.216;2024-01-25T01:36:04;12.80;67.50
610;DHT22;292;48.800;9.216;2024-01-25T01:38:31;12.80;67.50
610;DHT22;292;48.800;9.216;2024-01-25T01:40:58;12.80;67.30
610;DHT22;292;48.800;9.216;2024-01-25T01:43:25;12.80;67.30
610;DHT22;292;48.800;9.216;2024-01-25T01:45:53;12.80;67.50
610;DHT22;292;48.800;9.216;2024-01-25T01:48:23;12.80;67.30
610;DHT22;292;48.800;9.216;2024-01-25T01:50:50;12.80;67.30
610;DHT22;292;48.800;9.216;2024-01-25T01:53:17;12.80;67.30
610;DHT22;292;48.800;9.216;2024-01-25T01:55:44;12.80;67.30
610;DHT22;292;48.800;9.216;2024-01-25T01:58:11;12.70;67.30
610;DHT22;292;48.800;9.216;2024-01-25T02:00:39;12.80;67.50
610;DHT22;292;48.800;9.216;2024-01-25T02:03:09;12.70;67.50
610;DHT22;292;48.800;9.216;2024-01-25T02:05:41;12.70;67.30
610;DHT22;292;48.800;9.216;2024-01-25T02:08:09;12.70;67.30
610;DHT22;292;48.800;9.216;2024-01-25T02:10:38;12.70;67.30
610;DHT22;292;48.800;9.216;2024-01-25T02:13:05;12.70;67.30
610;DHT22;292;48.800;9.216;2024-01-25T02:15:32;12.70;67.30
610;DHT22;292;48.800;9.216;2024-01-25T02:17:59;12.70;67.30
610;DHT22;292;48.800;9.216;2024-01-25T02:20:26;12.70;67.30
610;DHT22;292;48.800;9.216;2024-01-25T02:22:55;12.70;67.00
610;DHT22;292;48.800;9.216;2024-01-25T02:25:22;12.70;67.00
610;DHT22;292;48.800;9.216;2024-01-25T02:27:49;12.70;66.70
610;DHT22;292;48.800;9.216;2024-01-25T02:30:16;12.70;66.70
610;DHT22;292;48.800;9.216;2024-01-25T02:32:43;12.70;66.60
610;DHT22;292;48.800;9.216;2024-01-25T02:35:11;12.60;66.60
610;DHT22;292;48.800;9.216;2024-01-25T02:37:37;12.60;66.40
610;DHT22;292;48.800;9.216;2024-01-25T02:40:07;12.60;66.30
610;DHT22;292;48.800;9.216;2024-01-25T02:42:34;12.60;66.20
610;DHT22;292;48.800;9.216;2024-01-25T02:45:01;12.60;66.20
610;DHT22;292;48.800;9.216;2024-01-25T02:47:28;12.60;66.20
610;DHT22;292;48.800;9.216;2024-01-25T02:49:55;12.60;66.20
610;DHT22;292;48.800;9.216;2024-01-25T02:52:22;12.60;66.30
610;DHT22;292;48.800;9.216;2024-01-25T02:54:49;12.60;66.30
610;DHT22;292;48.800;9.216;2024-01-25T02:57:18;12.50;66.40
610;DHT22;292;48.800;9.216;2024-01-25T02:59:45;12.50;66.40
610;DHT22;292;48.800;9.216;2024-01-25T03:02:12;12.50;66.40
610;DHT22;292;48.800;9.216;2024-01-25T03:04:39;12.50;66.60
610;DHT22;292;48.800;9.216;2024-01-25T03:07:06;12.50;66.60
610;DHT22;292;48.800;9.216;2024-01-25T03:09:33;12.50;66.70
610;DHT22;292;48.800;9.216;2024-01-25T03:12:00;12.50;66.70
610;DHT22;292;48.800;9.216;2024-01-25T03:14:28;12.50;67.00
610;DHT22;292;48.800;9.216;2024-01-25T03:16:55;12.50;67.00
610;DHT22;292;48.800;9.216;2024-01-25T03:19:24;12.50;67.00
610;DHT22;292;48.800;9.216;2024-01-25T03:21:52;12.50;67.20
610;DHT22;292;48.800;9.216;2024-01-25T03:24:20;12.50;67.20
610;DHT22;292;48.800;9.216;2024-01-25T03:26:47;12.50;67.00
610;DHT22;292;48.800;9.216;2024-01-25T03:29:14;12.50;67.20
610;DHT22;292;48.800;9.216;2024-01-25T03:31:42;12.50;67.20
610;DHT22;292;48.800;9.216;2024-01-25T03:34:09;12.50;67.30
610;DHT22;292;48.800;9.216;2024-01-25T03:36:37;12.40;67.30
610;DHT22;292;48.800;9.216;2024-01-25T03:39:05;12.40;67.30
610;DHT22;292;48.800;9.216;2024-01-25T03:41:32;12.40;67.30
610;DHT22;292;48.800;9.216;2024-01-25T03:43:59;12.40;67.50
610;DHT22;292;48.800;9.216;2024-01-25T03:46:26;12.40;67.50
610;DHT22;292;48.800;9.216;2024-01-25T03:48:55;12.40;67.60
610;DHT22;292;48.800;9.216;2024-01-25T03:51:21;12.30;67.60
610;DHT22;292;48.800;9.216;2024-01-25T03:53:49;12.30;67.70
610;DHT22;292;48.800;9.216;2024-01-25T03:56:18;12.30;67.70
610;DHT22;292;48.800;9.216;2024-01-25T03:58:45;12.30;67.90
610;DHT22;292;48.800;9.216;2024-01-25T04:01:12;12.30;68.00
610;DHT22;292;48.800;9.216;2024-01-25T04:03:39;12.30;68.00
610;DHT22;292;48.800;9.216;2024-01-25T04:06:08;12.20;68.20
610;DHT22;292;48.800;9.216;2024-01-25T04:08:35;12.20;68.20
610;DHT22;292;48.800;9.216;2024-01-25T04:11:02;12.20;68.20
610;DHT22;292;48.800;9.216;2024-01-25T04:13:29;12.20;68.20
610;DHT22;292;48.800;9.216;2024-01-25T04:15:56;12.20;68.30
610;DHT22;292;48.800;9.216;2024-01-25T04:18:23;12.10;68.30
610;DHT22;292;48.800;9.216;2024-01-25T04:20:50;12.10;68.50
610;DHT22;292;48.800;9.216;2024-01-25T04:23:18;12.10;68.60
610;DHT22;292;48.800;9.216;2024-01-25T04:25:45;12.10;68.50
610;DHT22;292;48.800;9.216;2024-01-25T04:28:12;12.00;68.50
610;DHT22;292;48.800;9.216;2024-01-25T04:30:39;12.00;68.50
610;DHT22;292;48.800;9.216;2024-01-25T04:33:06;12.00;68.50
610;DHT22;292;48.800;9.216;2024-01-25T04:35:33;12.00;68.60
610;DHT22;292;48.800;9.216;2024-01-25T04:38:00;12.00;68.60
610;DHT22;292;48.800;9.216;2024-01-25T04:40:29;12.00;68.60
610;DHT22;292;48.800;9.216;2024-01-25T04:42:56;11.90;68.60
610;DHT22;292;48.800;9.216;2024-01-25T04:45:24;11.90;68.90
610;DHT22;292;48.800;9.216;2024-01-25T04:47:51;11.90;68.90
610;DHT22;292;48.800;9.216;2024-01-25T04:50:18;11.90;68.90
610;DHT22;292;48.800;9.216;2024-01-25T04:52:45;11.90;69.00
610;DHT22;292;48.800;9.216;2024-01-25T04:55:12;11.80;69.00
610;DHT22;292;48.800;9.216;2024-01-25T04:57:40;11.80;68.90
610;DHT22;292;48.800;9.216;2024-01-25T05:00:09;11.80;68.90
610;DHT22;292;48.800;9.216;2024-01-25T05:02:36;11.80;68.90
610;DHT22;292;48.800;9.216;2024-01-25T05:05:03;11.80;68.70
610;DHT22;292;48.800;9.216;2024-01-25T05:07:30;11.80;68.60
610;DHT22;292;48.800;9.216;2024-01-25T05:09:57;11.80;68.30
610;DHT22;292;48.800;9.216;2024-01-25T05:12:24;11.80;68.20
610;DHT22;292;48.800;9.216;2024-01-25T05:14:52;11.80;67.70
610;DHT22;292;48.800;9.216;2024-01-25T05:17:20;11.80;67.30
610;DHT22;292;48.800;9.216;2024-01-25T05:19:46;11.70;67.30
610;DHT22;292;48.800;9.216;2024-01-25T05:22:13;11.70;67.30
610;DHT22;292;48.800;9.216;2024-01-25T05:24:40;11.70;67.30
610;DHT22;292;48.800;9.216;2024-01-25T05:27:07;11.70;67.00
610;DHT22;292;48.800;9.216;2024-01-25T05:29:34;11.70;67.30
610;DHT22;292;48.800;9.216;2024-01-25T05:32:03;11.70;67.00
610;DHT22;292;48.800;9.216;2024-01-25T05:34:30;11.70;67.00
610;DHT22;292;48.800;9.216;2024-01-25T05:36:57;11.70;67.00
610;DHT22;292;48.800;9.216;2024-01-25T05:39:24;11.60;67.00
610;DHT22;292;48.800;9.216;2024-01-25T05:41:51;11.60;67.00
610;DHT22;292;48.800;9.216;2024-01-25T05:44:18;11.60;67.20
610;DHT22;292;48.800;9.216;2024-01-25T05:46:46;11.60;67.20
610;DHT22;292;48.800;9.216;2024-01-25T05:49:14;11.60;67.00
610;DHT22;292;48.800;9.216;2024-01-25T05:51:42;11.60;67.00
610;DHT22;292;48.800;9.216;2024-01-25T05:54:09;11.60;66.90
610;DHT22;292;48.800;9.216;2024-01-25T05:56:36;11.50;66.70
610;DHT22;292;48.800;9.216;2024-01-25T05:59:03;11.50;66.70
610;DHT22;292;48.800;9.216;2024-01-25T06:01:30;11.50;66.70
610;DHT22;292;48.800;9.216;2024-01-25T06:03:57;11.50;66.60
610;DHT22;292;48.800;9.216;2024-01-25T06:06:25;11.50;66.60
610;DHT22;292;48.800;9.216;2024-01-25T06:08:52;11.50;66.60
610;DHT22;292;48.800;9.216;2024-01-25T06:11:19;11.40;66.60
610;DHT22;292;48.800;9.216;2024-01-25T06:13:46;11.40;66.60
610;DHT22;292;48.800;9.216;2024-01-25T06:16:13;11.40;66.60
610;DHT22;292;48.800;9.216;2024-01-25T06:18:40;11.40;66.70
610;DHT22;292;48.800;9.216;2024-01-25T06:21:07;11.40;66.70
610;DHT22;292;48.800;9.216;2024-01-25T06:23:35;11.30;66.90
610;DHT22;292;48.800;9.216;2024-01-25T06:26:02;11.30;67.00
610;DHT22;292;48.800;9.216;2024-01-25T06:28:30;11.30;67.20
610;DHT22;292;48.800;9.216;2024-01-25T06:30:57;11.30;67.30
610;DHT22;292;48.800;9.216;2024-01-25T06:33:27;11.20;67.60
610;DHT22;292;48.800;9.216;2024-01-25T06:35:57;11.20;68.00
610;DHT22;292;48.800;9.216;2024-01-25T06:38:24;11.20;68.30
610;DHT22;292;48.800;9.216;2024-01-25T06:40:53;11.20;68.50
610;DHT22;292;48.800;9.216;2024-01-25T06:43:20;11.20;68.70
610;DHT22;292;48.800;9.216;2024-01-25T06:45:47;11.20;68.90
610;DHT22;292;48.800;9.216;2024-01-25T06:48:13;11.20;69.20
610;DHT22;292;48.800;9.216;2024-01-25T06:50:40;11.20;69.30
610;DHT22;292;48.800;9.216;2024-01-25T06:53:07;11.20;69.30
610;DHT22;292;48.800;9.216;2024-01-25T06:55:34;11.20;69.50
610;DHT22;292;48.800;9.216;2024-01-25T06:58:03;11.10;69.60
610;DHT22;292;48.800;9.216;2024-01-25T07:00:30;11.20;69.80
610;DHT22;292;48.800;9.216;2024-01-25T07:02:57;11.20;69.90
610;DHT22;292;48.800;9.216;2024-01-25T07:05:24;11.20;69.90
610;DHT22;292;48.800;9.216;2024-01-25T07:07:51;11.20;69.90
610;DHT22;292;48.800;9.216;2024-01-25T07:10:18;11.30;69.80
610;DHT22;292;48.800;9.216;2024-01-25T07:12:45;11.30;69.80
610;DHT22;292;48.800;9.216;2024-01-25T07:15:14;11.30;69.80
610;DHT22;292;48.800;9.216;2024-01-25T07:17:41;11.30;69.60
610;DHT22;292;48.800;9.216;2024-01-25T07:20:08;11.30;69.60
610;DHT22;292;48.800;9.216;2024-01-25T07:22:35;11.30;69.60
610;DHT22;292;48.800;9.216;2024-01-25T07:25:03;11.40;69.60
610;DHT22;292;48.800;9.216;2024-01-25T07:27:30;11.40;69.80
610;DHT22;292;48.800;9.216;2024-01-25T07:29:57;11.40;69.80
610;DHT22;292;48.800;9.216;2024-01-25T07:32:25;11.40;69.60
610;DHT22;292;48.800;9.216;2024-01-25T07:34:52;11.40;69.80
610;DHT22;292;48.800;9.216;2024-01-25T07:37:21;11.40;69.80
610;DHT22;292;48.800;9.216;2024-01-25T07:39:48;11.40;69.80
610;DHT22;292;48.800;9.216;2024-01-25T07:42:15;11.40;69.60
610;DHT22;292;48.800;9.216;2024-01-25T07:44:43;11.40;69.60
610;DHT22;292;48.800;9.216;2024-01-25T07:47:10;11.40;69.60
610;DHT22;292;48.800;9.216;2024-01-25T07:49:40;11.50;69.30
610;DHT22;292;48.800;9.216;2024-01-25T07:52:07;11.50;69.50
610;DHT22;292;48.800;9.216;2024-01-25T07:54:34;11.50;69.50
610;DHT22;292;48.800;9.216;2024-01-25T07:57:01;11.50;69.30
610;DHT22;292;48.800;9.216;2024-01-25T07:59:28;11.50;69.20
610;DHT22;292;48.800;9.216;2024-01-25T08:01:55;11.50;69.20
610;DHT22;292;48.800;9.216;2024-01-25T08:04:22;11.50;69.00
610;DHT22;292;48.800;9.216;2024-01-25T08:06:51;11.50;69.20
610;DHT22;292;48.800;9.216;2024-01-25T08:09:19;11.50;69.20
610;DHT22;292;48.800;9.216;2024-01-25T08:11:46;11.50;69.20
610;DHT22;292;48.800;9.216;2024-01-25T08:14:12;11.50;69.20
610;DHT22;292;48.800;9.216;2024-01-25T08:16:40;11.50;69.20
610;DHT22;292;48.800;9.216;2024-01-25T08:19:08;11.60;69.20
610;DHT22;292;48.800;9.216;2024-01-25T08:21:35;11.60;69.20
610;DHT22;292;48.800;9.216;2024-01-25T08:24:04;11.60;68.90
610;DHT22;292;48.800;9.216;2024-01-25T08:26:31;11.70;68.70
610;DHT22;292;48.800;9.216;2024-01-25T08:28:58;11.70;68.60
610;DHT22;292;48.800;9.216;2024-01-25T08:31:25;11.80;68.60
610;DHT22;292;48.800;9.216;2024-01-25T08:33:52;11.80;68.20
610;DHT22;292;48.800;9.216;2024-01-25T08:36:19;11.90;68.00
610;DHT22;292;48.800;9.216;2024-01-25T08:38:48;11.90;67.70
610;DHT22;292;48.800;9.216;2024-01-25T08:41:18;12.00;67.50
610;DHT22;292;48.800;9.216;2024-01-25T08:43:44;12.00;66.90
610;DHT22;292;48.800;9.216;2024-01-25T08:46:13;12.00;66.70
610;DHT22;292;48.800;9.216;2024-01-25T08:48:41;12.10;66.40
610;DHT22;292;48.800;9.216;2024-01-25T08:51:08;12.20;66.00
610;DHT22;292;48.800;9.216;2024-01-25T08:53:35;12.20;65.40
610;DHT22;292;48.800;9.216;2024-01-25T08:56:02;12.30;65.30
610;DHT22;292;48.800;9.216;2024-01-25T08:58:31;12.60;64.90
610;DHT22;292;48.800;9.216;2024-01-25T09:00:58;12.90;64.00
610;DHT22;292;48.800;9.216;2024-01-25T09:03:25;13.30;63.10
610;DHT22;292;48.800;9.216;2024-01-25T09:05:53;13.60;62.30
610;DHT22;292;48.800;9.216;2024-01-25T09:08:19;13.90;61.10
610;DHT22;292;48.800;9.216;2024-01-25T09:10:47;14.20;60.00
610;DHT22;292;48.800;9.216;2024-01-25T09:13:14;14.60;59.00
610;DHT22;292;48.800;9.216;2024-01-25T09:15:43;14.80;58.10
610;DHT22;292;48.800;9.216;2024-01-25T09:18:12;15.00;57.70
610;DHT22;292;48.800;9.216;2024-01-25T09:20:39;15.10;56.90
610;DHT22;292;48.800;9.216;2024-01-25T09:23:06;15.00;56.20
610;DHT22;292;48.800;9.216;2024-01-25T09:25:33;15.00;56.40
610;DHT22;292;48.800;9.216;2024-01-25T09:28:01;15.00;56.50
610;DHT22;292;48.800;9.216;2024-01-25T09:30:29;15.00;56.20
610;DHT22;292;48.800;9.216;2024-01-25T09:32:58;15.00;56.10
610;DHT22;292;48.800;9.216;2024-01-25T09:35:25;15.00;55.70
610;DHT22;292;48.800;9.216;2024-01-25T09:37:52;15.00;55.70
610;DHT22;292;48.800;9.216;2024-01-25T09:40:19;15.00;55.70
610;DHT22;292;48.800;9.216;2024-01-25T09:42:47;15.10;55.40
610;DHT22;292;48.800;9.216;2024-01-25T09:45:17;15.30;55.00
610;DHT22;292;48.800;9.216;2024-01-25T09:47:44;15.50;54.60
610;DHT22;292;48.800;9.216;2024-01-25T09:50:12;15.60;54.00
610;DHT22;292;48.800;9.216;2024-01-25T09:52:40;15.70;53.70
610;DHT22;292;48.800;9.216;2024-01-25T09:55:11;15.60;53.30
610;DHT22;292;48.800;9.216;2024-01-25T09:57:41;15.60;53.00
610;DHT22;292;48.800;9.216;2024-01-25T10:00:12;15.50;53.00
610;DHT22;292;48.800;9.216;2024-01-25T10:02:39;15.50;53.00
610;DHT22;292;48.800;9.216;2024-01-25T10:05:07;15.50;53.00
610;DHT22;292;48.800;9.216;2024-01-25T10:07:41;15.30;52.80
610;DHT22;292;48.800;9.216;2024-01-25T10:10:08;15.10;52.50
610;DHT22;292;48.800;9.216;2024-01-25T10:12:37;14.90;52.60
610;DHT22;292;48.800;9.216;2024-01-25T10:15:05;14.80;52.60
610;DHT22;292;48.800;9.216;2024-01-25T10:17:32;14.60;52.80
610;DHT22;292;48.800;9.216;2024-01-25T10:19:59;14.50;53.00
610;DHT22;292;48.800;9.216;2024-01-25T10:22:26;14.50;53.40
610;DHT22;292;48.800;9.216;2024-01-25T10:24:54;14.40;53.40
610;DHT22;292;48.800;9.216;2024-01-25T10:27:22;14.40;53.70
610;DHT22;292;48.800;9.216;2024-01-25T10:29:49;14.50;54.00
610;DHT22;292;48.800;9.216;2024-01-25T10:32:16;14.70;54.00
610;DHT22;292;48.800;9.216;2024-01-25T10:34:45;14.80;53.60
610;DHT22;292;48.800;9.216;2024-01-25T10:37:14;15.00;53.30
610;DHT22;292;48.800;9.216;2024-01-25T10:39:41;15.10;52.90
610;DHT22;292;48.800;9.216;2024-01-25T10:42:10;15.10;52.40
610;DHT22;292;48.800;9.216;2024-01-25T10:44:37;15.10;52.20
610;DHT22;292;48.800;9.216;2024-01-25T10:47:06;15.20;52.10
610;DHT22;292;48.800;9.216;2024-01-25T10:49:33;15.30;51.80
610;DHT22;292;48.800;9.216;2024-01-25T10:52:04;15.40;51.70
610;DHT22;292;48.800;9.216;2024-01-25T10:54:32;15.50;51.60
610;DHT22;292;48.800;9.216;2024-01-25T10:56:59;15.70;51.20
610;DHT22;292;48.800;9.216;2024-01-25T10:59:28;15.80;50.80
610;DHT22;292;48.800;9.216;2024-01-25T11:01:55;16.00;50.60
610;DHT22;292;48.800;9.216;2024-01-25T11:04:22;16.20;50.50
610;DHT22;292;48.800;9.216;2024-01-25T11:06:51;16.30;50.40
610;DHT22;292;48.800;9.216;2024-01-25T11:09:19;16.50;50.10
610;DHT22;292;48.800;9.216;2024-01-25T11:11:47;16.70;49.80
610;DHT22;292;48.800;9.216;2024-01-25T11:14:15;16.80;49.40
610;DHT22;292;48.800;9.216;2024-01-25T11:16:45;16.80;49.20
610;DHT22;292;48.800;9.216;2024-01-25T11:19:17;16.80;49.20
610;DHT22;292;48.800;9.216;2024-01-25T11:21:45;16.80;49.00
610;DHT22;292;48.800;9.216;2024-01-25T11:24:13;16.80;49.00
610;DHT22;292;48.800;9.216;2024-01-25T11:26:41;16.80;48.90
610;DHT22;292;48.800;9.216;2024-01-25T11:29:09;16.80;49.00
610;DHT22;292;48.800;9.216;2024-01-25T11:31:36;16.90;48.90
610;DHT22;292;48.800;9.216;2024-01-25T11:34:05;17.10;48.60
610;DHT22;292;48.800;9.216;2024-01-25T11:36:31;17.10;48.20
610;DHT22;292;48.800;9.216;2024-01-25T11:38:58;17.10;48.00
610;DHT22;292;48.800;9.216;2024-01-25T11:41:26;17.10;47.70
610;DHT22;292;48.800;9.216;2024-01-25T11:43:53;17.10;47.60
610;DHT22;292;48.800;9.216;2024-01-25T11:46:20;17.10;47.40
610;DHT22;292;48.800;9.216;2024-01-25T11:48:47;17.10;47.30
610;DHT22;292;48.800;9.216;2024-01-25T11:51:15;17.10;47.00
610;DHT22;292;48.800;9.216;2024-01-25T11:53:42;17.20;46.60
610;DHT22;292;48.800;9.216;2024-01-25T11:56:12;17.20;45.70
610;DHT22;292;48.800;9.216;2024-01-25T11:58:42;17.30;45.40
610;DHT22;292;48.800;9.216;2024-01-25T12:01:10;17.30;45.60
610;DHT22;292;48.800;9.216;2024-01-25T12:03:38;17.40;45.30
610;DHT22;292;48.800;9.216;2024-01-25T12:06:05;17.40;45.00
610;DHT22;292;48.800;9.216;2024-01-25T12:08:36;17.40;44.90
610;DHT22;292;48.800;9.216;2024-01-25T12:11:05;17.50;44.90
610;DHT22;292;48.800;9.216;2024-01-25T12:13:33;17.50;44.80
610;DHT22;292;48.800;9.216;2024-01-25T12:16:01;17.50;44.50
610;DHT22;292;48.800;9.216;2024-01-25T12:18:29;17.50;44.40
610;DHT22;292;48.800;9.216;2024-01-25T12:20:58;17.50;44.20
610;DHT22;292;48.800;9.216;2024-01-25T12:23:31;17.40;44.40
610;DHT22;292;48.800;9.216;2024-01-25T12:26:01;17.40;44.60
610;DHT22;292;48.800;9.216;2024-01-25T12:28:29;17.30;44.60
610;DHT22;292;48.800;9.216;2024-01-25T12:30:56;17.20;44.80
610;DHT22;292;48.800;9.216;2024-01-25T12:33:23;17.00;44.90
610;DHT22;292;48.800;9.216;2024-01-25T12:35:50;16.90;45.40
610;DHT22;292;48.800;9.216;2024-01-25T12:38:19;16.80;45.60
610;DHT22;292;48.800;9.216;2024-01-25T12:40:47;16.80;45.20
610;DHT22;292;48.800;9.216;2024-01-25T12:43:16;16.70;45.00
610;DHT22;292;48.800;9.216;2024-01-25T12:45:44;16.60;45.00
610;DHT22;292;48.800;9.216;2024-01-25T12:48:11;16.60;45.30
610;DHT22;292;48.800;9.216;2024-01-25T12:50:38;16.60;45.40
610;DHT22;292;48.800;9.216;2024-01-25T12:53:05;16.70;45.60
610;DHT22;292;48.800;9.216;2024-01-25T12:55:33;16.70;46.10
610;DHT22;292;48.800;9.216;2024-01-25T12:58:00;16.70;46.60
610;DHT22;292;48.800;9.216;2024-01-25T13:00:29;16.80;46.80
610;DHT22;292;48.800;9.216;2024-01-25T13:02:57;16.80;46.90
610;DHT22;292;48.800;9.216;2024-01-25T13:05:24;16.80;46.90
610;DHT22;292;48.800;9.216;2024-01-25T13:07:51;16.70;47.00
610;DHT22;292;48.800;9.216;2024-01-25T13:10:18;16.70;47.30
610;DHT22;292;48.800;9.216;2024-01-25T13:12:45;16.70;47.40
610;DHT22;292;48.800;9.216;2024-01-25T13:15:12;16.60;47.40
610;DHT22;292;48.800;9.216;2024-01-25T13:17:41;16.60;47.40
610;DHT22;292;48.800;9.216;2024-01-25T13:20:09;16.60;47.70
610;DHT22;292;48.800;9.216;2024-01-25T13:22:36;16.60;47.80
610;DHT22;292;48.800;9.216;2024-01-25T13:25:04;16.60;47.80
610;DHT22;292;48.800;9.216;2024-01-25T13:27:31;16.50;48.00
610;DHT22;292;48.800;9.216;2024-01-25T13:29:58;16.50;48.00
610;DHT22;292;48.800;9.216;2024-01-25T13:32:25;16.50;48.10
610;DHT22;292;48.800;9.216;2024-01-25T13:34:54;16.50;48.10
610;DHT22;292;48.800;9.216;2024-01-25T13:37:21;16.50;48.10
610;DHT22;292;48.800;9.216;2024-01-25T13:39:48;16.50;48.10
610;DHT22;292;48.800;9.216;2024-01-25T13:42:15;16.40;48.20
610;DHT22;292;48.800;9.216;2024-01-25T13:44:42;16.40;48.20
610;DHT22;292;48.800;9.216;2024-01-25T13:47:10;16.40;48.40
610;DHT22;292;48.800;9.216;2024-01-25T13:49:37;16.30;48.50
610;DHT22;292;48.800;9.216;2024-01-25T13:52:06;16.30;48.50
610;DHT22;292;48.800;9.216;2024-01-25T13:54:33;16.30;48.80
610;DHT22;292;48.800;9.216;2024-01-25T13:57:00;16.30;48.80
610;DHT22;292;48.800;9.216;2024-01-25T13:59:27;16.20;48.80
610;DHT22;292;48.800;9.216;2024-01-25T14:01:54;16.10;48.90
610;DHT22;292;48.800;9.216;2024-01-25T14:04:21;16.10;49.00
610;DHT22;292;48.800;9.216;2024-01-25T14:06:48;16.10;49.00
610;DHT22;292;48.800;9.216;2024-01-25T14:09:17;16.00;49.20
610;DHT22;292;48.800;9.216;2024-01-25T14:11:44;15.90;49.30
610;DHT22;292;48.800;9.216;2024-01-25T14:14:11;15.80;49.30
610;DHT22;292;48.800;9.216;2024-01-25T14:16:38;15.80;49.40
610;DHT22;292;48.800;9.216;2024-01-25T14:19:05;15.80;49.60
610;DHT22;292;48.800;9.216;2024-01-25T14:21:32;15.70;49.70
610;DHT22;292;48.800;9.216;2024-01-25T14:23:59;15.70;49.70
610;DHT22;292;48.800;9.216;2024-01-25T14:26:27;15.70;49.80
610;DHT22;292;48.800;9.216;2024-01-25T14:28:54;15.70;49.80
610;DHT22;292;48.800;9.216;2024-01-25T14:31:21;15.60;50.00
610;DHT22;292;48.800;9.216;2024-01-25T14:33:48;15.60;50.10
610;DHT22;292;48.800;9.216;2024-01-25T14:36:15;15.50;50.40
610;DHT22;292;48.800;9.216;2024-01-25T14:38:42;15.50;50.40
610;DHT22;292;48.800;9.216;2024-01-25T14:41:09;15.40;50.40
610;DHT22;292;48.800;9.216;2024-01-25T14:43:38;15.30;50.50
610;DHT22;292;48.800;9.216;2024-01-25T14:46:05;15.30;50.80
610;DHT22;292;48.800;9.216;2024-01-25T14:48:32;15.20;50.90
610;DHT22;292;48.800;9.216;2024-01-25T14:50:59;15.10;51.20
610;DHT22;292;48.800;9.216;2024-01-25T14:53:26;15.10;51.30
610;DHT22;292;48.800;9.216;2024-01-25T14:55:53;15.10;51.40
610;DHT22;292;48.800;9.216;2024-01-25T14:58:20;15.00;51.60
610;DHT22;292;48.800;9.216;2024-01-25T15:00:51;14.90;51.60
610;DHT22;292;48.800;9.216;2024-01-25T15:03:18;14.90;51.80
610;DHT22;292;48.800;9.216;2024-01-25T15:05:46;14.80;52.00
610;DHT22;292;48.800;9.216;2024-01-25T15:08:13;14.70;52.20
610;DHT22;292;48.800;9.216;2024-01-25T15:10:40;14.70;52.50
610;DHT22;292;48.800;9.216;2024-01-25T15:13:07;14.60;52.80
610;DHT22;292;48.800;9.216;2024-01-25T15:15:34;14.50;53.00
610;DHT22;292;48.800;9.216;2024-01-25T15:18:03;14.50;53.30
610;DHT22;292;48.800;9.216;2024-01-25T15:20:30;14.40;53.60
610;DHT22;292;48.800;9.216;2024-01-25T15:23:01;14.40;53.70
610;DHT22;292;48.800;9.216;2024-01-25T15:25:34;14.30;54.00
610;DHT22;292;48.800;9.216;2024-01-25T15:28:01;14.30;54.20
610;DHT22;292;48.800;9.216;2024-01-25T15:30:28;14.30;54.40
610;DHT22;292;48.800;9.216;2024-01-25T15:32:55;14.30;54.60
610;DHT22;292;48.800;9.216;2024-01-25T15:35:24;14.20;54.80
610;DHT22;292;48.800;9.216;2024-01-25T15:37:51;14.20;54.90
610;DHT22;292;48.800;9.216;2024-01-25T15:40:18;14.10;55.00
610;DHT22;292;48.800;9.216;2024-01-25T15:42:45;14.10;55.20
610;DHT22;292;48.800;9.216;2024-01-25T15:45:17;14.10;55.30
610;DHT22;292;48.800;9.216;2024-01-25T15:47:44;14.10;55.40
610;DHT22;292;48.800;9.216;2024-01-25T15:50:11;14.10;55.60
610;DHT22;292;48.800;9.216;2024-01-25T15:52:39;14.00;55.70
610;DHT22;292;48.800;9.216;2024-01-25T15:55:08;14.00;55.70
610;DHT22;292;48.800;9.216;2024-01-25T15:57:35;14.00;55.80
610;DHT22;292;48.800;9.216;2024-01-25T16:00:02;14.00;56.00
610;DHT22;292;48.800;9.216;2024-01-25T16:02:29;13.90;56.10
610;DHT22;292;48.800;9.216;2024-01-25T16:04:56;13.90;56.20
610;DHT22;292;48.800;9.216;2024-01-25T16:07:23;13.90;56.20
610;DHT22;292;48.800;9.216;2024-01-25T16:09:51;13.90;56.20
610;DHT22;292;48.800;9.216;2024-01-25T16:12:18;13.90;56.20
610;DHT22;292;48.800;9.216;2024-01-25T16:14:45;13.90;56.40
610;DHT22;292;48.800;9.216;2024-01-25T16:17:12;13.90;56.40
610;DHT22;292;48.800;9.216;2024-01-25T16:19:40;13.90;56.50
610;DHT22;292;48.800;9.216;2024-01-25T16:22:07;13.90;56.50
610;DHT22;292;48.800;9.216;2024-01-25T16:24:35;13.90;56.60
610;DHT22;292;48.800;9.216;2024-01-25T16:27:03;13.90;56.60
610;DHT22;292;48.800;9.216;2024-01-25T16:29:30;13.80;56.60
610;DHT22;292;48.800;9.216;2024-01-25T16:31:57;13.80;56.80
610;DHT22;292;48.800;9.216;2024-01-25T16:34:24;13.80;56.80
610;DHT22;292;48.800;9.216;2024-01-25T16:36:51;13.80;56.80